createdAt,value
2023-06-10T00:00:48.998Z,54.7
2023-06-10T00:03:50.009Z,54.9
2023-06-10T00:06:48.910Z,55.1
2023-06-10T00:09:48.910Z,55.2
2023-06-10T00:12:48.909Z,55.2
2023-06-10T00:15:49.024Z,55.2
2023-06-10T00:18:49.018Z,55.4
2023-06-10T00:21:49.146Z,55.5
2023-06-10T00:24:49.120Z,55.4
2023-06-10T00:27:48.919Z,55.5
2023-06-10T00:30:48.929Z,55.8
2023-06-10T00:33:48.931Z,55.8
2023-06-10T00:36:48.892Z,55.7
2023-06-10T00:39:48.897Z,55.7
2023-06-10T00:42:48.968Z,55.4
2023-06-10T00:45:49.076Z,55.3
2023-06-10T00:48:48.996Z,55.2
2023-06-10T00:51:48.949Z,55.0
2023-06-10T00:54:48.889Z,55.0
2023-06-10T00:57:48.949Z,54.8
2023-06-10T01:00:48.993Z,54.7
2023-06-10T01:03:49.210Z,54.6
2023-06-10T01:06:48.946Z,54.5
2023-06-10T01:09:48.941Z,54.5
2023-06-10T01:12:48.930Z,54.6
2023-06-10T01:15:48.923Z,54.6
2023-06-10T01:18:49.103Z,54.5
2023-06-10T01:21:51.294Z,54.3
2023-06-10T01:24:49.122Z,54.4
2023-06-10T01:27:48.922Z,54.3
2023-06-10T01:30:48.949Z,54.5
2023-06-10T01:33:48.968Z,54.4
2023-06-10T01:36:48.962Z,54.6
2023-06-10T01:39:48.904Z,54.6
2023-06-10T01:42:48.944Z,54.7
2023-06-10T01:45:48.877Z,54.9
2023-06-10T01:48:49.000Z,55.2
2023-06-10T01:51:48.946Z,55.5
2023-06-10T01:54:48.910Z,55.6
2023-06-10T01:57:48.925Z,55.8
2023-06-10T02:00:49.109Z,55.7
2023-06-10T02:03:49.307Z,55.7
2023-06-10T02:06:48.957Z,55.6
2023-06-10T02:09:48.897Z,55.7
2023-06-10T02:12:50.660Z,55.6
2023-06-10T02:15:48.894Z,56.1
2023-06-10T02:18:49.003Z,56.5
2023-06-10T02:21:48.894Z,56.7
2023-06-10T02:24:49.172Z,56.7
2023-06-10T02:27:48.916Z,57.0
2023-06-10T02:30:48.983Z,57.2
2023-06-10T02:33:49.073Z,57.4
2023-06-10T02:36:48.991Z,57.6
2023-06-10T02:39:48.920Z,57.8
2023-06-10T02:42:48.914Z,58.0
2023-06-10T02:45:48.937Z,58.5
2023-06-10T02:48:49.032Z,58.2
2023-06-10T02:51:48.861Z,58.4
2023-06-10T02:54:48.893Z,58.6
2023-06-10T02:57:48.893Z,58.9
2023-06-10T03:00:48.979Z,58.9
2023-06-10T03:03:49.032Z,59.3
2023-06-10T03:06:48.943Z,59.4
2023-06-10T03:09:48.953Z,60.0
2023-06-10T03:12:48.944Z,60.2
2023-06-10T03:15:48.981Z,60.5
2023-06-10T03:18:49.082Z,60.6
2023-06-10T03:21:48.878Z,60.5
2023-06-10T03:24:49.075Z,60.2
2023-06-10T03:27:48.909Z,60.7
2023-06-10T03:30:48.949Z,60.3
2023-06-10T03:33:48.970Z,60.7
2023-06-10T03:36:48.908Z,60.8
2023-06-10T03:39:48.866Z,61.0
2023-06-10T03:42:48.995Z,61.7
2023-06-10T03:45:49.054Z,61.4
2023-06-10T03:48:48.988Z,61.4
2023-06-10T03:51:48.931Z,62.0
2023-06-10T03:54:48.966Z,61.9
2023-06-10T03:57:48.916Z,62.0
2023-06-10T04:00:48.973Z,61.7
2023-06-10T04:03:49.457Z,61.2
2023-06-10T04:06:49.325Z,61.3
2023-06-10T04:09:48.884Z,61.6
2023-06-10T04:12:49.127Z,61.4
2023-06-10T04:15:48.942Z,60.5
2023-06-10T04:18:48.941Z,60.4
2023-06-10T04:21:48.939Z,60.3
2023-06-10T04:24:49.187Z,60.3
2023-06-10T04:27:48.911Z,59.4
2023-06-10T04:30:48.880Z,58.6
2023-06-10T04:33:48.966Z,58.8
2023-06-10T04:36:48.882Z,58.8
2023-06-10T04:39:48.971Z,59.1
2023-06-10T04:42:48.912Z,59.9
2023-06-10T04:45:48.933Z,60.3
2023-06-10T04:48:48.951Z,60.2
2023-06-10T04:51:48.964Z,60.4
2023-06-10T04:54:48.908Z,61.1
2023-06-10T04:57:51.017Z,61.1
2023-06-10T05:00:48.931Z,61.1
2023-06-10T05:03:49.447Z,60.0
2023-06-10T05:06:48.919Z,59.4
2023-06-10T05:09:49.003Z,59.6
2023-06-10T05:12:49.018Z,60.3
2023-06-10T05:15:48.935Z,60.5
2023-06-10T05:18:49.087Z,60.5
2023-06-10T05:21:48.916Z,60.6
2023-06-10T05:24:49.103Z,60.6
2023-06-10T05:27:48.922Z,60.5
2023-06-10T05:30:48.989Z,60.8
2023-06-10T05:33:49.049Z,60.5
2023-06-10T05:36:48.944Z,60.2
2023-06-10T05:39:48.960Z,59.9
2023-06-10T05:42:48.941Z,59.6
2023-06-10T05:45:48.936Z,59.6
2023-06-10T05:48:49.013Z,59.6
2023-06-10T05:51:48.879Z,59.2
2023-06-10T05:54:48.928Z,58.9
2023-06-10T05:57:48.879Z,58.4
2023-06-10T06:00:48.960Z,58.1
2023-06-10T06:06:48.936Z,58.2
2023-06-10T06:09:48.909Z,58.0
2023-06-10T06:12:48.963Z,57.4
2023-06-10T06:15:48.997Z,57.2
2023-06-10T06:18:49.553Z,56.8
2023-06-10T06:21:48.968Z,56.4
2023-06-10T06:24:49.719Z,55.3
2023-06-10T06:27:49.330Z,55.1
2023-06-10T06:30:49.506Z,55.0
2023-06-10T06:33:49.030Z,54.9
2023-06-10T06:36:48.956Z,55.0
2023-06-10T06:39:48.958Z,54.7
2023-06-10T06:42:48.910Z,54.6
2023-06-10T06:45:48.953Z,54.3
2023-06-10T06:48:49.574Z,53.6
2023-06-10T06:51:48.939Z,53.9
2023-06-10T06:54:48.895Z,53.8
2023-06-10T06:57:48.934Z,53.5
2023-06-10T07:00:48.992Z,52.9
2023-06-10T07:03:49.046Z,53.1
2023-06-10T07:06:50.244Z,53.0
2023-06-10T07:09:48.925Z,52.8
2023-06-10T07:12:48.967Z,52.6
2023-06-10T07:15:48.960Z,52.5
2023-06-10T07:18:49.030Z,52.3
2023-06-10T07:21:49.004Z,52.3
2023-06-10T07:24:49.360Z,52.6
2023-06-10T07:27:48.904Z,52.2
2023-06-10T07:30:49.066Z,52.0
2023-06-10T07:33:48.972Z,51.5
2023-06-10T07:36:49.048Z,50.9
2023-06-10T07:39:48.941Z,50.7
2023-06-10T07:42:48.924Z,50.6
2023-06-10T07:45:48.952Z,50.3
2023-06-10T07:48:48.944Z,49.6
2023-06-10T07:51:49.034Z,49.3
2023-06-10T07:54:50.250Z,49.5
2023-06-10T07:57:48.973Z,49.1
2023-06-10T08:00:48.992Z,49.4
2023-06-10T08:03:49.508Z,49.3
2023-06-10T08:06:48.920Z,49.2
2023-06-10T08:09:48.942Z,49.1
2023-06-10T08:12:48.977Z,48.8
2023-06-10T08:15:48.963Z,48.3
2023-06-10T08:18:48.996Z,48.2
2023-06-10T08:21:48.910Z,48.3
2023-06-10T08:24:49.622Z,48.0
2023-06-10T08:27:48.940Z,47.2
2023-06-10T08:30:48.939Z,46.8
2023-06-10T08:33:49.073Z,47.0
2023-06-10T08:36:48.900Z,46.8
2023-06-10T08:39:48.855Z,46.8
2023-06-10T08:42:48.936Z,46.7
2023-06-10T08:45:51.753Z,46.7
2023-06-10T08:48:49.260Z,45.8
2023-06-10T08:51:48.901Z,46.3
2023-06-10T08:54:48.904Z,46.1
2023-06-10T08:57:49.097Z,45.8
2023-06-10T09:00:48.935Z,44.7
2023-06-10T09:03:53.255Z,44.6
2023-06-10T09:06:48.941Z,44.1
2023-06-10T09:09:51.881Z,43.8
2023-06-10T09:12:48.908Z,43.6
2023-06-10T09:15:51.581Z,42.9
2023-06-10T09:18:49.005Z,43.0
2023-06-10T09:21:48.903Z,43.9
2023-06-10T09:24:49.183Z,43.8
2023-06-10T09:27:48.850Z,43.2
2023-06-10T09:30:48.969Z,42.6
2023-06-10T09:33:49.081Z,42.7
2023-06-10T09:36:49.341Z,42.3
2023-06-10T09:39:48.865Z,42.2
2023-06-10T09:42:49.075Z,41.9
2023-06-10T09:45:49.055Z,41.3
2023-06-10T09:48:49.056Z,41.0
2023-06-10T09:51:49.097Z,41.2
2023-06-10T09:54:49.010Z,41.9
2023-06-10T09:57:49.190Z,41.3
2023-06-10T10:00:49.056Z,40.3
2023-06-10T10:03:49.092Z,39.5
2023-06-10T10:06:49.313Z,40.0
2023-06-10T10:09:49.048Z,39.6
2023-06-10T10:12:48.972Z,39.5
2023-06-10T10:15:48.956Z,40.3
2023-06-10T10:18:49.325Z,40.1
2023-06-10T10:21:48.900Z,40.1
2023-06-10T10:24:49.412Z,39.3
2023-06-10T10:27:49.135Z,39.4
2023-06-10T10:30:49.005Z,39.3
2023-06-10T10:33:49.295Z,38.1
2023-06-10T10:36:49.149Z,38.5
2023-06-10T10:39:48.962Z,37.9
2023-06-10T10:42:49.113Z,37.6
2023-06-10T10:45:48.956Z,38.0
2023-06-10T10:48:48.980Z,37.3
2023-06-10T10:51:48.900Z,36.6
2023-06-10T10:54:48.967Z,36.5
2023-06-10T10:57:49.121Z,37.6
2023-06-10T11:00:49.151Z,37.6
2023-06-10T11:03:53.214Z,37.5
2023-06-10T11:06:49.111Z,36.5
2023-06-10T11:09:53.975Z,36.6
2023-06-10T11:12:48.965Z,36.7
2023-06-10T11:15:48.915Z,36.2
2023-06-10T11:18:49.008Z,35.7
2023-06-10T11:21:49.072Z,35.4
2023-06-10T11:24:49.445Z,35.5
2023-06-10T11:27:48.956Z,35.4
2023-06-10T11:30:48.987Z,35.0
2023-06-10T11:33:50.672Z,35.6
2023-06-10T11:36:48.917Z,35.3
2023-06-10T11:39:48.893Z,34.6
2023-06-10T11:42:48.905Z,35.3
2023-06-10T11:45:48.972Z,34.4
2023-06-10T11:48:49.331Z,34.2
2023-06-10T11:51:48.889Z,34.6
2023-06-10T11:54:48.925Z,34.4
2023-06-10T11:57:48.918Z,34.1
2023-06-10T12:00:48.948Z,34.3
2023-06-10T12:03:49.294Z,34.4
2023-06-10T12:06:49.415Z,34.3
2023-06-10T12:10:06.586Z,34.2
2023-06-10T12:12:49.591Z,34.3
2023-06-10T12:15:49.351Z,34.7
2023-06-10T12:18:49.169Z,34.6
2023-06-10T12:21:48.910Z,34.4
2023-06-10T12:24:49.164Z,33.9
2023-06-10T12:27:49.261Z,34.2
2023-06-10T12:30:48.949Z,33.8
2023-06-10T12:33:48.937Z,33.3
2023-06-10T12:36:48.963Z,33.7
2023-06-10T12:39:48.961Z,33.6
2023-06-10T12:42:50.089Z,33.9
2023-06-10T12:45:49.115Z,33.5
2023-06-10T12:48:48.968Z,32.9
2023-06-10T12:51:49.027Z,33.6
2023-06-10T12:54:48.917Z,34.2
2023-06-10T12:57:48.946Z,34.1
2023-06-10T13:00:48.997Z,34.2
2023-06-10T13:03:48.997Z,33.7
2023-06-10T13:06:48.944Z,33.7
2023-06-10T13:09:48.924Z,33.7
2023-06-10T13:12:59.161Z,33.6
2023-06-10T13:15:48.914Z,34.1
2023-06-10T13:18:49.072Z,33.5
2023-06-10T13:21:48.918Z,33.6
2023-06-10T13:24:49.087Z,33.8
2023-06-10T13:27:49.015Z,34.0
2023-06-10T13:30:48.874Z,33.7
2023-06-10T13:33:49.086Z,34.1
2023-06-10T13:36:48.941Z,33.4
2023-06-10T13:39:48.968Z,33.0
2023-06-10T13:42:48.924Z,33.3
2023-06-10T13:45:48.993Z,33.4
2023-06-10T13:48:49.149Z,33.1
2023-06-10T13:51:48.881Z,33.0
2023-06-10T13:54:49.124Z,33.5
2023-06-10T13:57:48.951Z,33.1
2023-06-10T14:00:48.910Z,33.6
2023-06-10T14:03:49.463Z,33.0
2023-06-10T14:06:48.972Z,32.9
2023-06-10T14:09:48.923Z,32.8
2023-06-10T14:12:49.119Z,33.4
2023-06-10T14:15:49.089Z,33.9
2023-06-10T14:18:48.969Z,33.7
2023-06-10T14:21:48.956Z,33.3
2023-06-10T14:24:49.028Z,33.4
2023-06-10T14:27:48.871Z,33.4
2023-06-10T14:30:48.943Z,33.4
2023-06-10T14:33:49.098Z,33.9
2023-06-10T14:36:48.920Z,33.5
2023-06-10T14:39:48.945Z,33.7
2023-06-10T14:42:48.965Z,33.9
2023-06-10T14:45:52.518Z,33.3
2023-06-10T14:48:49.053Z,32.7
2023-06-10T14:51:52.758Z,32.5
2023-06-10T14:54:48.972Z,32.6
2023-06-10T14:57:52.855Z,32.9
2023-06-10T15:00:49.053Z,33.1
2023-06-10T15:03:49.134Z,33.0
2023-06-10T15:06:48.874Z,33.1
2023-06-10T15:09:48.989Z,33.0
2023-06-10T15:12:49.067Z,33.0
2023-06-10T15:15:48.971Z,32.2
2023-06-10T15:18:49.130Z,32.1
2023-06-10T15:21:48.928Z,32.4
2023-06-10T15:24:49.199Z,32.5
2023-06-10T15:27:48.916Z,32.7
2023-06-10T15:30:48.950Z,32.3
2023-06-10T15:33:48.973Z,32.3
2023-06-10T15:36:49.049Z,32.4
2023-06-10T15:39:48.992Z,32.0
2023-06-10T15:42:49.041Z,32.1
2023-06-10T15:45:51.988Z,32.1
2023-06-10T15:48:48.955Z,32.1
2023-06-10T15:51:50.940Z,32.2
2023-06-10T15:54:48.892Z,32.3
2023-06-10T15:57:49.057Z,31.3
2023-06-10T16:00:49.190Z,31.3
2023-06-10T16:03:49.260Z,31.5
2023-06-10T16:06:49.418Z,31.8
2023-06-10T16:09:48.917Z,32.2
2023-06-10T16:12:48.921Z,32.3
2023-06-10T16:15:48.947Z,32.8
2023-06-10T16:18:49.123Z,32.9
2023-06-10T16:21:48.959Z,32.9
2023-06-10T16:24:49.088Z,33.0
2023-06-10T16:27:48.902Z,32.8
2023-06-10T16:30:48.954Z,32.8
2023-06-10T16:33:49.005Z,32.4
2023-06-10T16:36:48.972Z,32.4
2023-06-10T16:39:48.960Z,32.9
2023-06-10T16:42:48.917Z,33.2
2023-06-10T16:45:48.943Z,33.3
2023-06-10T16:48:48.979Z,33.4
2023-06-10T16:51:48.953Z,33.6
2023-06-10T16:54:48.917Z,32.8
2023-06-10T16:57:48.995Z,33.4
2023-06-10T17:00:48.872Z,33.3
2023-06-10T17:03:48.974Z,33.6
2023-06-10T17:06:49.006Z,33.2
2023-06-10T17:09:48.888Z,33.7
2023-06-10T17:12:48.905Z,34.1
2023-06-10T17:15:48.911Z,33.9
2023-06-10T17:18:49.369Z,33.7
2023-06-10T17:21:48.919Z,33.3
2023-06-10T17:24:49.224Z,33.0
2023-06-10T17:27:48.927Z,33.2
2023-06-10T17:30:48.913Z,33.5
2023-06-10T17:33:49.016Z,33.9
2023-06-10T17:36:49.063Z,34.0
2023-06-10T17:39:48.929Z,34.4
2023-06-10T17:42:48.912Z,35.0
2023-06-10T17:45:48.901Z,35.3
2023-06-10T17:48:49.032Z,35.4
2023-06-10T17:51:48.909Z,35.2
2023-06-10T17:54:48.926Z,35.6
2023-06-10T17:57:48.986Z,35.8
2023-06-10T18:00:48.911Z,35.9
2023-06-10T18:03:49.431Z,36.3
2023-06-10T18:06:48.939Z,36.3
2023-06-10T18:09:49.023Z,36.4
2023-06-10T18:12:48.913Z,36.3
2023-06-10T18:15:52.198Z,35.8
2023-06-10T18:18:49.069Z,35.4
2023-06-10T18:21:51.538Z,34.9
2023-06-10T18:24:49.172Z,34.4
2023-06-10T18:27:49.475Z,34.0
2023-06-10T18:30:48.930Z,33.4
2023-06-10T18:33:48.984Z,33.6
2023-06-10T18:36:48.978Z,33.6
2023-06-10T18:39:48.845Z,33.6
2023-06-10T18:42:48.884Z,33.8
2023-06-10T18:45:48.955Z,33.9
2023-06-10T18:48:48.995Z,34.5
2023-06-10T18:51:48.966Z,35.0
2023-06-10T18:54:48.991Z,35.3
2023-06-10T18:57:48.919Z,35.8
2023-06-10T19:00:48.948Z,35.9
2023-06-10T19:03:49.510Z,35.9
2023-06-10T19:06:48.885Z,36.4
2023-06-10T19:09:48.957Z,36.6
2023-06-10T19:12:49.003Z,36.8
2023-06-10T19:15:48.909Z,36.9
2023-06-10T19:18:49.011Z,37.1
2023-06-10T19:21:48.924Z,37.3
2023-06-10T19:24:48.978Z,37.6
2023-06-10T19:27:48.925Z,37.8
2023-06-10T19:30:48.909Z,38.1
2023-06-10T19:33:49.058Z,38.2
2023-06-10T19:36:48.993Z,38.4
2023-06-10T19:39:48.941Z,38.2
2023-06-10T19:42:48.961Z,38.0
2023-06-10T19:45:48.887Z,38.1
2023-06-10T19:48:49.273Z,38.4
2023-06-10T19:51:48.964Z,38.6
2023-06-10T19:54:48.951Z,38.7
2023-06-10T19:57:48.920Z,38.7
2023-06-10T20:00:48.972Z,39.2
2023-06-10T20:03:49.568Z,39.4
2023-06-10T20:06:49.001Z,39.1
2023-06-10T20:09:54.565Z,39.0
2023-06-10T20:12:52.871Z,39.2
2023-06-10T20:15:48.929Z,39.5
2023-06-10T20:18:48.969Z,39.9
2023-06-10T20:21:52.082Z,40.1
2023-06-10T20:24:49.520Z,40.4
2023-06-10T20:27:49.007Z,40.9
2023-06-10T20:30:48.990Z,41.1
2023-06-10T20:33:49.023Z,41.3
2023-06-10T20:36:49.358Z,41.6
2023-06-10T20:39:48.921Z,41.8
2023-06-10T20:42:49.731Z,42.1
2023-06-10T20:45:48.952Z,42.2
2023-06-10T20:48:49.011Z,42.4
2023-06-10T20:51:48.906Z,42.7
2023-06-10T20:54:48.936Z,42.9
2023-06-10T20:57:48.925Z,43.1
2023-06-10T21:00:48.986Z,43.4
2023-06-10T21:03:49.151Z,43.3
2023-06-10T21:06:48.919Z,42.9
2023-06-10T21:09:58.913Z,42.9
2023-06-10T21:12:49.001Z,43.3
2023-06-10T21:15:48.980Z,43.7
2023-06-10T21:18:48.975Z,43.9
2023-06-10T21:21:48.964Z,44.1
2023-06-10T21:24:49.041Z,44.1
2023-06-10T21:27:49.446Z,44.0
2023-06-10T21:30:49.363Z,43.7
2023-06-10T21:33:48.989Z,43.8
2023-06-10T21:36:51.714Z,44.0
2023-06-10T21:39:48.886Z,44.2
2023-06-10T21:42:48.916Z,44.6
2023-06-10T21:45:48.884Z,44.9
2023-06-10T21:48:49.095Z,45.1
2023-06-10T21:51:48.962Z,45.2
2023-06-10T21:54:49.245Z,45.3
2023-06-10T21:57:48.928Z,45.5
2023-06-10T22:00:49.077Z,45.7
2023-06-10T22:03:49.292Z,45.8
2023-06-10T22:06:48.891Z,46.2
2023-06-10T22:09:50.032Z,46.5
2023-06-10T22:12:48.911Z,46.9
2023-06-10T22:15:48.897Z,46.8
2023-06-10T22:18:48.963Z,46.8
2023-06-10T22:21:48.996Z,47.0
2023-06-10T22:24:49.021Z,47.2
2023-06-10T22:27:48.935Z,47.3
2023-06-10T22:30:48.963Z,47.5
2023-06-10T22:33:48.983Z,47.6
2023-06-10T22:36:49.044Z,47.6
2023-06-10T22:39:48.963Z,47.6
2023-06-10T22:42:48.937Z,47.6
2023-06-10T22:45:48.986Z,47.6
2023-06-10T22:48:49.361Z,47.9
2023-06-10T22:51:48.918Z,48.2
2023-06-10T22:54:48.912Z,48.1
2023-06-10T22:57:48.890Z,48.3
2023-06-10T23:00:48.948Z,48.5
2023-06-10T23:03:49.138Z,48.9
2023-06-10T23:06:48.969Z,49.4
2023-06-10T23:09:48.880Z,49.6
2023-06-10T23:12:48.903Z,50.1
2023-06-10T23:15:48.917Z,50.2
2023-06-10T23:18:48.996Z,50.4
2023-06-10T23:21:48.922Z,50.5
2023-06-10T23:24:50.667Z,50.4
2023-06-10T23:27:49.012Z,50.7
2023-06-10T23:30:49.437Z,51.2
2023-06-10T23:33:49.546Z,51.0
2023-06-10T23:36:48.893Z,51.2
2023-06-10T23:39:49.316Z,51.6
2023-06-10T23:42:48.959Z,51.8
2023-06-10T23:45:48.930Z,51.8
2023-06-10T23:48:49.097Z,51.8
2023-06-10T23:51:48.947Z,52.3
2023-06-10T23:54:48.894Z,52.6
2023-06-10T23:57:48.962Z,52.7
